sensor_id;sensor_type;location;lat;lon;timestamp;temperature;humidity
52323;DHT22;38263;52.920;6.238;2022-07-23T00:01:26;14.00;99.90
52323;DHT22;38263;52.920;6.238;2022-07-23T00:03:53;14.00;99.90
52323;DHT22;38263;52.920;6.238;2022-07-23T00:06:20;14.00;99.90
52323;DHT22;38263;52.920;6.238;2022-07-23T00:08:48;13.80;99.90
52323;DHT22;38263;52.920;6.238;2022-07-23T00:11:13;13.70;99.90
52323;DHT22;38263;52.920;6.238;2022-07-23T00:13:39;13.90;99.90
52323;DHT22;38263;52.920;6.238;2022-07-23T00:16:05;13.80;99.90
52323;DHT22;38263;52.920;6.238;2022-07-23T00:18:31;13.80;99.90
52323;DHT22;38263;52.920;6.238;2022-07-23T00:23:22;13.80;99.90
52323;DHT22;38263;52.920;6.238;2022-07-23T00:25:48;13.70;99.90
52323;DHT22;38263;52.920;6.238;2022-07-23T00:28:13;13.60;99.90
52323;DHT22;38263;52.920;6.238;2022-07-23T00:30:39;13.50;99.90
52323;DHT22;38263;52.920;6.238;2022-07-23T00:33:07;13.50;99.90
52323;DHT22;38263;52.920;6.238;2022-07-23T00:35:35;13.60;99.90
52323;DHT22;38263;52.920;6.238;2022-07-23T00:38:01;13.60;99.90
52323;DHT22;38263;52.920;6.238;2022-07-23T00:40:29;13.60;99.90
52323;DHT22;38263;52.920;6.238;2022-07-23T00:42:55;13.50;99.90
52323;DHT22;38263;52.920;6.238;2022-07-23T00:45:20;13.50;99.90
52323;DHT22;38263;52.920;6.238;2022-07-23T00:47:48;13.60;99.90
52323;DHT22;38263;52.920;6.238;2022-07-23T00:50:14;13.40;99.90
52323;DHT22;38263;52.920;6.238;2022-07-23T00:55:07;13.20;99.90
52323;DHT22;38263;52.920;6.238;2022-07-23T00:57:34;13.60;99.90
52323;DHT22;38263;52.920;6.238;2022-07-23T01:00:00;13.30;99.90
52323;DHT22;38263;52.920;6.238;2022-07-23T01:02:26;13.20;99.90
52323;DHT22;38263;52.920;6.238;2022-07-23T01:04:52;13.30;99.90
52323;DHT22;38263;52.920;6.238;2022-07-23T01:07:21;13.20;99.90
52323;DHT22;38263;52.920;6.238;2022-07-23T01:09:47;13.30;99.90
52323;DHT22;38263;52.920;6.238;2022-07-23T01:12:14;13.10;99.90
52323;DHT22;38263;52.920;6.238;2022-07-23T01:14:42;13.30;99.90
52323;DHT22;38263;52.920;6.238;2022-07-23T01:17:07;13.30;99.90
52323;DHT22;38263;52.920;6.238;2022-07-23T01:19:33;13.30;99.90
52323;DHT22;38263;52.920;6.238;2022-07-23T01:22:02;13.20;99.90
52323;DHT22;38263;52.920;6.238;2022-07-23T01:24:28;13.20;99.90
52323;DHT22;38263;52.920;6.238;2022-07-23T01:29:22;13.10;99.90
52323;DHT22;38263;52.920;6.238;2022-07-23T01:31:48;13.10;99.90
52323;DHT22;38263;52.920;6.238;2022-07-23T01:34:13;13.40;99.90
52323;DHT22;38263;52.920;6.238;2022-07-23T01:36:39;12.90;99.90
52323;DHT22;38263;52.920;6.238;2022-07-23T01:39:06;12.80;99.90
52323;DHT22;38263;52.920;6.238;2022-07-23T01:41:32;12.80;99.90
52323;DHT22;38263;52.920;6.238;2022-07-23T01:44:00;12.90;99.90
52323;DHT22;38263;52.920;6.238;2022-07-23T01:46:26;13.00;99.90
52323;DHT22;38263;52.920;6.238;2022-07-23T01:48:51;13.10;99.90
52323;DHT22;38263;52.920;6.238;2022-07-23T01:53:43;12.80;99.90
52323;DHT22;38263;52.920;6.238;2022-07-23T01:56:09;12.80;99.90
52323;DHT22;38263;52.920;6.238;2022-07-23T01:58:34;12.90;99.90
52323;DHT22;38263;52.920;6.238;2022-07-23T02:01:00;12.90;99.90
52323;DHT22;38263;52.920;6.238;2022-07-23T02:03:29;12.60;99.90
52323;DHT22;38263;52.920;6.238;2022-07-23T02:08:20;12.80;99.90
52323;DHT22;38263;52.920;6.238;2022-07-23T02:10:46;12.70;99.90
52323;DHT22;38263;52.920;6.238;2022-07-23T02:13:12;12.80;99.90
52323;DHT22;38263;52.920;6.238;2022-07-23T02:15:37;12.70;99.90
52323;DHT22;38263;52.920;6.238;2022-07-23T02:18:03;12.60;99.90
52323;DHT22;38263;52.920;6.238;2022-07-23T02:20:29;12.50;99.90
52323;DHT22;38263;52.920;6.238;2022-07-23T02:22:54;12.50;99.90
52323;DHT22;38263;52.920;6.238;2022-07-23T02:25:20;12.50;99.90
52323;DHT22;38263;52.920;6.238;2022-07-23T02:30:12;12.40;99.90
52323;DHT22;38263;52.920;6.238;2022-07-23T02:32:38;12.40;99.90
52323;DHT22;38263;52.920;6.238;2022-07-23T02:35:05;12.20;99.90
52323;DHT22;38263;52.920;6.238;2022-07-23T02:37:31;12.10;99.90
52323;DHT22;38263;52.920;6.238;2022-07-23T02:39:56;12.20;99.90
52323;DHT22;38263;52.920;6.238;2022-07-23T02:42:22;12.10;99.90
52323;DHT22;38263;52.920;6.238;2022-07-23T02:44:50;12.20;99.90
52323;DHT22;38263;52.920;6.238;2022-07-23T02:47:16;12.20;99.90
52323;DHT22;38263;52.920;6.238;2022-07-23T02:52:07;12.20;99.90
52323;DHT22;38263;52.920;6.238;2022-07-23T02:57:01;12.10;99.90
52323;DHT22;38263;52.920;6.238;2022-07-23T02:59:27;12.10;99.90
52323;DHT22;38263;52.920;6.238;2022-07-23T03:01:52;12.00;99.90
52323;DHT22;38263;52.920;6.238;2022-07-23T03:04:18;11.90;99.90
52323;DHT22;38263;52.920;6.238;2022-07-23T03:06:46;12.10;99.90
52323;DHT22;38263;52.920;6.238;2022-07-23T03:11:38;12.00;99.90
52323;DHT22;38263;52.920;6.238;2022-07-23T03:14:03;12.00;99.90
52323;DHT22;38263;52.920;6.238;2022-07-23T03:16:29;11.90;99.90
52323;DHT22;38263;52.920;6.238;2022-07-23T03:18:54;11.80;99.90
52323;DHT22;38263;52.920;6.238;2022-07-23T03:21:20;11.80;99.90
52323;DHT22;38263;52.920;6.238;2022-07-23T03:23:45;11.80;99.90
52323;DHT22;38263;52.920;6.238;2022-07-23T03:26:11;11.80;99.90
52323;DHT22;38263;52.920;6.238;2022-07-23T03:31:02;11.60;99.90
52323;DHT22;38263;52.920;6.238;2022-07-23T03:33:28;11.60;99.90
52323;DHT22;38263;52.920;6.238;2022-07-23T03:35:53;11.60;99.90
52323;DHT22;38263;52.920;6.238;2022-07-23T03:38:19;11.50;99.90
52323;DHT22;38263;52.920;6.238;2022-07-23T03:40:44;11.70;99.90
52323;DHT22;38263;52.920;6.238;2022-07-23T03:43:10;11.80;99.90
52323;DHT22;38263;52.920;6.238;2022-07-23T03:48:02;11.70;99.90
52323;DHT22;38263;52.920;6.238;2022-07-23T03:50:27;11.60;99.90
52323;DHT22;38263;52.920;6.238;2022-07-23T03:55:19;11.80;99.90
52323;DHT22;38263;52.920;6.238;2022-07-23T03:57:45;11.80;99.90
52323;DHT22;38263;52.920;6.238;2022-07-23T04:00:12;11.90;99.90
52323;DHT22;38263;52.920;6.238;2022-07-23T04:02:39;11.70;99.90
52323;DHT22;38263;52.920;6.238;2022-07-23T04:05:05;11.90;99.90
52323;DHT22;38263;52.920;6.238;2022-07-23T04:07:31;11.80;99.90
52323;DHT22;38263;52.920;6.238;2022-07-23T04:09:56;11.90;99.90
52323;DHT22;38263;52.920;6.238;2022-07-23T04:12:22;11.90;99.90
52323;DHT22;38263;52.920;6.238;2022-07-23T04:14:48;11.80;99.90
52323;DHT22;38263;52.920;6.238;2022-07-23T04:17:13;11.80;99.90
52323;DHT22;38263;52.920;6.238;2022-07-23T04:19:39;11.70;99.90
52323;DHT22;38263;52.920;6.238;2022-07-23T04:22:10;11.90;99.90
52323;DHT22;38263;52.920;6.238;2022-07-23T04:24:36;11.80;99.90
52323;DHT22;38263;52.920;6.238;2022-07-23T04:27:03;11.90;99.90
52323;DHT22;38263;52.920;6.238;2022-07-23T04:29:28;11.90;99.90
52323;DHT22;38263;52.920;6.238;2022-07-23T04:31:54;12.00;99.90
52323;DHT22;38263;52.920;6.238;2022-07-23T04:34:19;11.90;99.90
52323;DHT22;38263;52.920;6.238;2022-07-23T04:36:48;12.10;99.90
52323;DHT22;38263;52.920;6.238;2022-07-23T04:39:16;12.10;99.90
52323;DHT22;38263;52.920;6.238;2022-07-23T04:44:07;12.10;99.90
52323;DHT22;38263;52.920;6.238;2022-07-23T04:46:33;12.10;99.90
52323;DHT22;38263;52.920;6.238;2022-07-23T04:48:58;12.30;99.90
52323;DHT22;38263;52.920;6.238;2022-07-23T04:51:24;12.40;99.90
52323;DHT22;38263;52.920;6.238;2022-07-23T04:53:49;12.70;99.90
52323;DHT22;38263;52.920;6.238;2022-07-23T04:56:15;12.80;99.90
52323;DHT22;38263;52.920;6.238;2022-07-23T05:01:07;13.00;99.90
52323;DHT22;38263;52.920;6.238;2022-07-23T05:03:33;12.90;99.90
52323;DHT22;38263;52.920;6.238;2022-07-23T05:05:58;12.90;99.90
52323;DHT22;38263;52.920;6.238;2022-07-23T05:08:24;13.20;99.90
52323;DHT22;38263;52.920;6.238;2022-07-23T05:10:52;13.00;99.90
52323;DHT22;38263;52.920;6.238;2022-07-23T05:13:18;13.30;99.90
52323;DHT22;38263;52.920;6.238;2022-07-23T05:15:44;13.10;99.90
52323;DHT22;38263;52.920;6.238;2022-07-23T05:18:10;13.90;99.90
52323;DHT22;38263;52.920;6.238;2022-07-23T05:20:36;14.60;99.90
52323;DHT22;38263;52.920;6.238;2022-07-23T05:23:02;14.30;99.90
52323;DHT22;38263;52.920;6.238;2022-07-23T05:25:27;14.90;99.90
52323;DHT22;38263;52.920;6.238;2022-07-23T05:27:53;16.00;99.90
52323;DHT22;38263;52.920;6.238;2022-07-23T05:30:19;16.30;99.90
52323;DHT22;38263;52.920;6.238;2022-07-23T05:35:11;16.60;99.90
52323;DHT22;38263;52.920;6.238;2022-07-23T05:37:39;16.90;99.90
52323;DHT22;38263;52.920;6.238;2022-07-23T05:40:08;17.30;99.90
52323;DHT22;38263;52.920;6.238;2022-07-23T05:42:35;17.80;99.90
52323;DHT22;38263;52.920;6.238;2022-07-23T05:45:00;18.30;99.90
52323;DHT22;38263;52.920;6.238;2022-07-23T05:47:26;18.20;99.90
52323;DHT22;38263;52.920;6.238;2022-07-23T05:49:52;18.50;99.90
52323;DHT22;38263;52.920;6.238;2022-07-23T05:52:17;18.60;99.90
52323;DHT22;38263;52.920;6.238;2022-07-23T05:54:43;18.40;99.90
52323;DHT22;38263;52.920;6.238;2022-07-23T05:57:08;18.30;99.90
52323;DHT22;38263;52.920;6.238;2022-07-23T05:59:34;18.20;99.90
52323;DHT22;38263;52.920;6.238;2022-07-23T06:02:00;18.10;99.90
52323;DHT22;38263;52.920;6.238;2022-07-23T06:04:25;18.00;99.90
52323;DHT22;38263;52.920;6.238;2022-07-23T06:06:51;18.50;99.90
52323;DHT22;38263;52.920;6.238;2022-07-23T06:09:17;18.10;99.90
52323;DHT22;38263;52.920;6.238;2022-07-23T06:11:44;18.20;99.90
52323;DHT22;38263;52.920;6.238;2022-07-23T06:14:10;18.30;99.90
52323;DHT22;38263;52.920;6.238;2022-07-23T06:16:35;18.30;99.90
52323;DHT22;38263;52.920;6.238;2022-07-23T06:19:01;18.30;99.90
52323;DHT22;38263;52.920;6.238;2022-07-23T06:21:29;18.30;99.90
52323;DHT22;38263;52.920;6.238;2022-07-23T06:23:55;18.60;99.90
52323;DHT22;38263;52.920;6.238;2022-07-23T06:26:20;18.70;99.90
52323;DHT22;38263;52.920;6.238;2022-07-23T06:28:48;19.10;99.90
52323;DHT22;38263;52.920;6.238;2022-07-23T06:31:14;19.00;99.90
52323;DHT22;38263;52.920;6.238;2022-07-23T06:33:39;19.20;99.90
52323;DHT22;38263;52.920;6.238;2022-07-23T06:36:05;19.40;99.90
52323;DHT22;38263;52.920;6.238;2022-07-23T06:38:30;19.60;99.90
52323;DHT22;38263;52.920;6.238;2022-07-23T06:40:56;19.50;99.90
52323;DHT22;38263;52.920;6.238;2022-07-23T06:43:22;19.70;99.90
52323;DHT22;38263;52.920;6.238;2022-07-23T06:45:47;19.80;99.90
52323;DHT22;38263;52.920;6.238;2022-07-23T06:48:13;19.90;99.90
52323;DHT22;38263;52.920;6.238;2022-07-23T06:50:38;19.90;99.90
52323;DHT22;38263;52.920;6.238;2022-07-23T06:53:04;19.70;99.90
52323;DHT22;38263;52.920;6.238;2022-07-23T06:55:29;19.80;99.90
52323;DHT22;38263;52.920;6.238;2022-07-23T06:57:56;19.50;99.90
52323;DHT22;38263;52.920;6.238;2022-07-23T07:00:22;19.40;99.90
52323;DHT22;38263;52.920;6.238;2022-07-23T07:02:47;19.30;99.90
52323;DHT22;38263;52.920;6.238;2022-07-23T07:05:13;19.10;99.90
52323;DHT22;38263;52.920;6.238;2022-07-23T07:07:38;18.90;99.90
52323;DHT22;38263;52.920;6.238;2022-07-23T07:10:06;18.60;99.90
52323;DHT22;38263;52.920;6.238;2022-07-23T07:12:34;18.50;99.90
52323;DHT22;38263;52.920;6.238;2022-07-23T07:15:00;18.20;99.90
52323;DHT22;38263;52.920;6.238;2022-07-23T07:17:26;18.50;99.90
52323;DHT22;38263;52.920;6.238;2022-07-23T07:19:51;18.20;99.90
52323;DHT22;38263;52.920;6.238;2022-07-23T07:22:19;18.30;99.90
52323;DHT22;38263;52.920;6.238;2022-07-23T07:24:45;18.10;99.90
52323;DHT22;38263;52.920;6.238;2022-07-23T07:27:10;18.00;99.90
52323;DHT22;38263;52.920;6.238;2022-07-23T07:29:36;18.00;99.90
52323;DHT22;38263;52.920;6.238;2022-07-23T07:32:02;18.00;99.90
52323;DHT22;38263;52.920;6.238;2022-07-23T07:34:27;17.80;99.90
52323;DHT22;38263;52.920;6.238;2022-07-23T07:36:53;17.90;99.90
52323;DHT22;38263;52.920;6.238;2022-07-23T07:39:18;17.80;99.90
52323;DHT22;38263;52.920;6.238;2022-07-23T07:41:44;18.00;99.90
52323;DHT22;38263;52.920;6.238;2022-07-23T07:44:09;17.80;99.90
52323;DHT22;38263;52.920;6.238;2022-07-23T07:46:35;17.70;99.90
52323;DHT22;38263;52.920;6.238;2022-07-23T07:49:01;17.90;99.90
52323;DHT22;38263;52.920;6.238;2022-07-23T07:51:27;17.80;99.90
52323;DHT22;38263;52.920;6.238;2022-07-23T07:53:52;17.80;99.90
52323;DHT22;38263;52.920;6.238;2022-07-23T07:56:20;17.90;99.90
52323;DHT22;38263;52.920;6.238;2022-07-23T07:58:46;18.00;99.90
52323;DHT22;38263;52.920;6.238;2022-07-23T08:01:12;18.00;99.90
52323;DHT22;38263;52.920;6.238;2022-07-23T08:03:37;18.00;99.90
52323;DHT22;38263;52.920;6.238;2022-07-23T08:06:04;18.10;99.90
52323;DHT22;38263;52.920;6.238;2022-07-23T08:08:29;18.00;99.90
52323;DHT22;38263;52.920;6.238;2022-07-23T08:10:55;18.10;99.90
52323;DHT22;38263;52.920;6.238;2022-07-23T08:13:21;18.20;99.90
52323;DHT22;38263;52.920;6.238;2022-07-23T08:15:46;18.20;99.90
52323;DHT22;38263;52.920;6.238;2022-07-23T08:18:14;17.90;99.90
52323;DHT22;38263;52.920;6.238;2022-07-23T08:20:40;18.10;99.90
52323;DHT22;38263;52.920;6.238;2022-07-23T08:23:07;18.20;99.90
52323;DHT22;38263;52.920;6.238;2022-07-23T08:25:41;18.20;99.90
52323;DHT22;38263;52.920;6.238;2022-07-23T08:28:09;18.40;99.90
52323;DHT22;38263;52.920;6.238;2022-07-23T08:30:35;18.50;99.90
52323;DHT22;38263;52.920;6.238;2022-07-23T08:33:04;18.30;99.90
52323;DHT22;38263;52.920;6.238;2022-07-23T08:35:37;18.60;99.90
52323;DHT22;38263;52.920;6.238;2022-07-23T08:38:04;18.60;99.90
52323;DHT22;38263;52.920;6.238;2022-07-23T08:40:33;18.60;99.90
52323;DHT22;38263;52.920;6.238;2022-07-23T08:42:59;18.70;99.90
52323;DHT22;38263;52.920;6.238;2022-07-23T08:45:26;18.80;99.90
52323;DHT22;38263;52.920;6.238;2022-07-23T08:47:57;18.70;99.90
52323;DHT22;38263;52.920;6.238;2022-07-23T08:50:24;18.70;99.90
52323;DHT22;38263;52.920;6.238;2022-07-23T08:52:53;19.10;99.90
52323;DHT22;38263;52.920;6.238;2022-07-23T08:55:22;18.60;99.90
52323;DHT22;38263;52.920;6.238;2022-07-23T08:57:49;18.70;99.90
52323;DHT22;38263;52.920;6.238;2022-07-23T09:00:20;18.60;99.90
52323;DHT22;38263;52.920;6.238;2022-07-23T09:02:47;18.80;99.90
52323;DHT22;38263;52.920;6.238;2022-07-23T09:05:13;18.80;99.90
52323;DHT22;38263;52.920;6.238;2022-07-23T09:10:29;18.80;99.90
52323;DHT22;38263;52.920;6.238;2022-07-23T09:12:54;19.00;99.90
52323;DHT22;38263;52.920;6.238;2022-07-23T09:15:20;19.20;99.90
52323;DHT22;38263;52.920;6.238;2022-07-23T09:17:46;19.20;99.90
52323;DHT22;38263;52.920;6.238;2022-07-23T09:20:16;19.30;99.90
52323;DHT22;38263;52.920;6.238;2022-07-23T09:22:45;19.40;99.90
52323;DHT22;38263;52.920;6.238;2022-07-23T09:25:14;19.30;99.90
52323;DHT22;38263;52.920;6.238;2022-07-23T09:27:57;19.40;99.90
52323;DHT22;38263;52.920;6.238;2022-07-23T09:30:30;19.20;99.90
52323;DHT22;38263;52.920;6.238;2022-07-23T09:33:14;19.40;99.90
52323;DHT22;38263;52.920;6.238;2022-07-23T09:35:45;19.40;99.90
52323;DHT22;38263;52.920;6.238;2022-07-23T09:38:12;19.30;99.90
52323;DHT22;38263;52.920;6.238;2022-07-23T09:40:37;19.30;99.90
52323;DHT22;38263;52.920;6.238;2022-07-23T09:43:03;19.40;99.90
52323;DHT22;38263;52.920;6.238;2022-07-23T09:45:28;19.60;99.90
52323;DHT22;38263;52.920;6.238;2022-07-23T09:48:14;19.60;99.90
52323;DHT22;38263;52.920;6.238;2022-07-23T09:50:44;19.30;99.90
52323;DHT22;38263;52.920;6.238;2022-07-23T09:53:31;19.20;99.90
52323;DHT22;38263;52.920;6.238;2022-07-23T09:55:58;19.70;99.90
52323;DHT22;38263;52.920;6.238;2022-07-23T09:58:25;19.40;99.90
52323;DHT22;38263;52.920;6.238;2022-07-23T10:00:52;19.60;99.90
52323;DHT22;38263;52.920;6.238;2022-07-23T10:03:19;21.00;99.90
52323;DHT22;38263;52.920;6.238;2022-07-23T10:05:49;20.00;99.90
52323;DHT22;38263;52.920;6.238;2022-07-23T10:08:19;19.70;99.90
52323;DHT22;38263;52.920;6.238;2022-07-23T10:10:48;19.60;99.90
52323;DHT22;38263;52.920;6.238;2022-07-23T10:13:15;19.70;99.90
52323;DHT22;38263;52.920;6.238;2022-07-23T10:16:07;19.60;99.90
52323;DHT22;38263;52.920;6.238;2022-07-23T10:18:33;19.90;99.90
52323;DHT22;38263;52.920;6.238;2022-07-23T10:21:00;19.90;99.90
52323;DHT22;38263;52.920;6.238;2022-07-23T10:23:33;19.90;99.90
52323;DHT22;38263;52.920;6.238;2022-07-23T10:26:11;19.80;99.90
52323;DHT22;38263;52.920;6.238;2022-07-23T10:36:47;19.90;99.90
52323;DHT22;38263;52.920;6.238;2022-07-23T10:39:27;20.00;99.90
52323;DHT22;38263;52.920;6.238;2022-07-23T10:44:41;20.20;99.90
52323;DHT22;38263;52.920;6.238;2022-07-23T10:47:08;20.10;99.90
52323;DHT22;38263;52.920;6.238;2022-07-23T10:49:49;20.40;99.90
52323;DHT22;38263;52.920;6.238;2022-07-23T10:52:22;20.30;99.90
52323;DHT22;38263;52.920;6.238;2022-07-23T10:57:47;20.30;99.90
52323;DHT22;38263;52.920;6.238;2022-07-23T11:00:36;20.30;99.90
52323;DHT22;38263;52.920;6.238;2022-07-23T11:03:05;20.60;99.90
52323;DHT22;38263;52.920;6.238;2022-07-23T11:05:50;20.50;99.90
52323;DHT22;38263;52.920;6.238;2022-07-23T11:08:18;20.60;99.90
52323;DHT22;38263;52.920;6.238;2022-07-23T11:16:14;20.50;99.90
52323;DHT22;38263;52.920;6.238;2022-07-23T11:31:57;21.20;99.90
52323;DHT22;38263;52.920;6.238;2022-07-23T11:36:59;21.20;99.90
52323;DHT22;38263;52.920;6.238;2022-07-23T11:39:27;21.30;99.90
52323;DHT22;38263;52.920;6.238;2022-07-23T11:41:53;21.10;99.90
52323;DHT22;38263;52.920;6.238;2022-07-23T11:44:35;21.30;99.90
52323;DHT22;38263;52.920;6.238;2022-07-23T11:47:08;21.10;99.90
52323;DHT22;38263;52.920;6.238;2022-07-23T11:49:34;21.30;99.90
52323;DHT22;38263;52.920;6.238;2022-07-23T11:52:07;20.80;99.90
52323;DHT22;38263;52.920;6.238;2022-07-23T11:54:36;21.00;99.90
52323;DHT22;38263;52.920;6.238;2022-07-23T11:57:03;21.20;99.90
52323;DHT22;38263;52.920;6.238;2022-07-23T11:59:31;21.10;99.90
52323;DHT22;38263;52.920;6.238;2022-07-23T12:02:07;21.10;99.90
52323;DHT22;38263;52.920;6.238;2022-07-23T12:04:43;21.20;99.90
52323;DHT22;38263;52.920;6.238;2022-07-23T12:09:57;21.10;99.90
52323;DHT22;38263;52.920;6.238;2022-07-23T12:12:24;20.90;99.90
52323;DHT22;38263;52.920;6.238;2022-07-23T12:14:57;22.90;99.90
52323;DHT22;38263;52.920;6.238;2022-07-23T12:17:33;21.20;99.90
52323;DHT22;38263;52.920;6.238;2022-07-23T12:19:59;21.10;99.90
52323;DHT22;38263;52.920;6.238;2022-07-23T12:22:26;21.30;99.90
52323;DHT22;38263;52.920;6.238;2022-07-23T12:25:04;21.20;99.90
52323;DHT22;38263;52.920;6.238;2022-07-23T12:27:30;21.20;99.90
52323;DHT22;38263;52.920;6.238;2022-07-23T12:29:56;21.20;99.90
52323;DHT22;38263;52.920;6.238;2022-07-23T12:32:25;21.20;99.90
52323;DHT22;38263;52.920;6.238;2022-07-23T12:35:05;21.20;99.90
52323;DHT22;38263;52.920;6.238;2022-07-23T12:37:36;21.40;99.90
52323;DHT22;38263;52.920;6.238;2022-07-23T12:42:51;21.50;99.90
52323;DHT22;38263;52.920;6.238;2022-07-23T12:45:17;21.50;99.90
52323;DHT22;38263;52.920;6.238;2022-07-23T12:50:42;21.30;99.90
52323;DHT22;38263;52.920;6.238;2022-07-23T12:55:39;21.20;99.90
52323;DHT22;38263;52.920;6.238;2022-07-23T12:58:18;21.40;99.90
52323;DHT22;38263;52.920;6.238;2022-07-23T13:00:59;21.30;99.90
52323;DHT22;38263;52.920;6.238;2022-07-23T13:03:36;21.40;99.90
52323;DHT22;38263;52.920;6.238;2022-07-23T13:06:04;21.40;99.90
52323;DHT22;38263;52.920;6.238;2022-07-23T13:08:34;21.40;99.90
52323;DHT22;38263;52.920;6.238;2022-07-23T13:11:00;21.20;99.90
52323;DHT22;38263;52.920;6.238;2022-07-23T13:13:29;21.50;99.90
52323;DHT22;38263;52.920;6.238;2022-07-23T13:15:56;21.20;99.90
52323;DHT22;38263;52.920;6.238;2022-07-23T13:18:22;21.40;99.90
52323;DHT22;38263;52.920;6.238;2022-07-23T13:20:48;21.40;99.90
52323;DHT22;38263;52.920;6.238;2022-07-23T13:23:14;21.40;99.90
52323;DHT22;38263;52.920;6.238;2022-07-23T13:25:40;21.40;99.90
52323;DHT22;38263;52.920;6.238;2022-07-23T13:28:06;21.40;99.90
52323;DHT22;38263;52.920;6.238;2022-07-23T13:30:32;21.40;99.90
52323;DHT22;38263;52.920;6.238;2022-07-23T13:33:03;21.40;99.90
52323;DHT22;38263;52.920;6.238;2022-07-23T13:35:29;21.50;99.90
52323;DHT22;38263;52.920;6.238;2022-07-23T13:37:55;21.30;99.90
52323;DHT22;38263;52.920;6.238;2022-07-23T13:40:21;21.40;99.90
52323;DHT22;38263;52.920;6.238;2022-07-23T13:42:46;21.90;99.90
52323;DHT22;38263;52.920;6.238;2022-07-23T13:45:12;21.80;99.90
52323;DHT22;38263;52.920;6.238;2022-07-23T13:47:38;22.00;99.90
52323;DHT22;38263;52.920;6.238;2022-07-23T13:50:04;21.80;99.90
52323;DHT22;38263;52.920;6.238;2022-07-23T13:52:30;21.60;99.90
52323;DHT22;38263;52.920;6.238;2022-07-23T13:54:58;21.80;99.90
52323;DHT22;38263;52.920;6.238;2022-07-23T13:57:24;21.90;99.90
52323;DHT22;38263;52.920;6.238;2022-07-23T13:59:49;22.10;99.90
52323;DHT22;38263;52.920;6.238;2022-07-23T14:02:16;21.90;99.90
52323;DHT22;38263;52.920;6.238;2022-07-23T14:04:43;22.00;99.90
52323;DHT22;38263;52.920;6.238;2022-07-23T14:07:08;21.80;99.90
52323;DHT22;38263;52.920;6.238;2022-07-23T14:09:34;22.70;99.90
52323;DHT22;38263;52.920;6.238;2022-07-23T14:12:00;21.80;99.90
52323;DHT22;38263;52.920;6.238;2022-07-23T14:14:25;21.70;99.90
52323;DHT22;38263;52.920;6.238;2022-07-23T14:16:51;21.80;99.90
52323;DHT22;38263;52.920;6.238;2022-07-23T14:19:16;21.80;99.90
52323;DHT22;38263;52.920;6.238;2022-07-23T14:21:44;22.10;99.90
52323;DHT22;38263;52.920;6.238;2022-07-23T14:24:10;22.40;99.90
52323;DHT22;38263;52.920;6.238;2022-07-23T14:26:35;22.20;99.90
52323;DHT22;38263;52.920;6.238;2022-07-23T14:29:01;22.30;99.90
52323;DHT22;38263;52.920;6.238;2022-07-23T14:31:29;22.30;99.90
52323;DHT22;38263;52.920;6.238;2022-07-23T14:33:54;22.10;99.90
52323;DHT22;38263;52.920;6.238;2022-07-23T14:36:20;22.30;99.90
52323;DHT22;38263;52.920;6.238;2022-07-23T14:38:46;22.20;99.90
52323;DHT22;38263;52.920;6.238;2022-07-23T14:41:11;23.50;99.90
52323;DHT22;38263;52.920;6.238;2022-07-23T14:43:37;22.10;99.90
52323;DHT22;38263;52.920;6.238;2022-07-23T14:46:03;22.10;99.90
52323;DHT22;38263;52.920;6.238;2022-07-23T14:48:28;22.30;99.90
52323;DHT22;38263;52.920;6.238;2022-07-23T14:50:54;22.40;99.90
52323;DHT22;38263;52.920;6.238;2022-07-23T14:53:20;22.50;99.90
52323;DHT22;38263;52.920;6.238;2022-07-23T14:55:45;22.60;99.90
52323;DHT22;38263;52.920;6.238;2022-07-23T14:58:11;23.80;99.90
52323;DHT22;38263;52.920;6.238;2022-07-23T15:00:37;22.60;99.90
52323;DHT22;38263;52.920;6.238;2022-07-23T15:03:02;22.60;99.90
52323;DHT22;38263;52.920;6.238;2022-07-23T15:05:28;22.30;99.90
52323;DHT22;38263;52.920;6.238;2022-07-23T15:07:54;22.60;99.90
52323;DHT22;38263;52.920;6.238;2022-07-23T15:10:20;22.50;99.90
52323;DHT22;38263;52.920;6.238;2022-07-23T15:12:46;22.70;99.90
52323;DHT22;38263;52.920;6.238;2022-07-23T15:15:12;22.70;99.90
52323;DHT22;38263;52.920;6.238;2022-07-23T15:17:38;22.50;99.90
52323;DHT22;38263;52.920;6.238;2022-07-23T15:20:07;22.70;99.90
52323;DHT22;38263;52.920;6.238;2022-07-23T15:22:33;22.70;99.90
52323;DHT22;38263;52.920;6.238;2022-07-23T15:24:58;22.70;99.90
52323;DHT22;38263;52.920;6.238;2022-07-23T15:27:24;22.60;99.90
52323;DHT22;38263;52.920;6.238;2022-07-23T15:29:50;22.90;99.90
52323;DHT22;38263;52.920;6.238;2022-07-23T15:32:18;22.80;99.90
52323;DHT22;38263;52.920;6.238;2022-07-23T15:34:47;22.60;99.90
52323;DHT22;38263;52.920;6.238;2022-07-23T15:37:12;22.90;99.90
52323;DHT22;38263;52.920;6.238;2022-07-23T15:39:38;22.70;99.90
52323;DHT22;38263;52.920;6.238;2022-07-23T15:42:03;22.70;99.90
52323;DHT22;38263;52.920;6.238;2022-07-23T15:44:29;23.00;99.90
52323;DHT22;38263;52.920;6.238;2022-07-23T15:46:58;22.90;99.90
52323;DHT22;38263;52.920;6.238;2022-07-23T15:49:24;22.70;99.90
52323;DHT22;38263;52.920;6.238;2022-07-23T15:51:50;23.20;99.90
52323;DHT22;38263;52.920;6.238;2022-07-23T15:54:17;23.00;99.90
52323;DHT22;38263;52.920;6.238;2022-07-23T15:56:43;23.10;99.90
52323;DHT22;38263;52.920;6.238;2022-07-23T15:59:09;22.80;99.90
52323;DHT22;38263;52.920;6.238;2022-07-23T16:01:34;23.20;99.90
52323;DHT22;38263;52.920;6.238;2022-07-23T16:04:00;23.00;99.90
52323;DHT22;38263;52.920;6.238;2022-07-23T16:06:26;23.00;99.90
52323;DHT22;38263;52.920;6.238;2022-07-23T16:08:51;22.90;99.90
52323;DHT22;38263;52.920;6.238;2022-07-23T16:11:17;23.00;99.90
52323;DHT22;38263;52.920;6.238;2022-07-23T16:13:44;23.00;99.90
52323;DHT22;38263;52.920;6.238;2022-07-23T16:16:10;23.00;99.90
52323;DHT22;38263;52.920;6.238;2022-07-23T16:18:37;22.80;99.90
52323;DHT22;38263;52.920;6.238;2022-07-23T16:21:02;22.80;99.90
52323;DHT22;38263;52.920;6.238;2022-07-23T16:23:28;22.90;99.90
52323;DHT22;38263;52.920;6.238;2022-07-23T16:25:54;23.20;99.90
52323;DHT22;38263;52.920;6.238;2022-07-23T16:28:19;22.80;99.90
52323;DHT22;38263;52.920;6.238;2022-07-23T16:30:45;22.90;99.90
52323;DHT22;38263;52.920;6.238;2022-07-23T16:33:11;22.80;99.90
52323;DHT22;38263;52.920;6.238;2022-07-23T16:35:36;22.70;99.90
52323;DHT22;38263;52.920;6.238;2022-07-23T16:38:03;23.00;99.90
52323;DHT22;38263;52.920;6.238;2022-07-23T16:40:30;22.90;99.90
52323;DHT22;38263;52.920;6.238;2022-07-23T16:42:56;23.10;99.90
52323;DHT22;38263;52.920;6.238;2022-07-23T16:45:21;23.20;99.90
52323;DHT22;38263;52.920;6.238;2022-07-23T16:47:47;23.20;99.90
52323;DHT22;38263;52.920;6.238;2022-07-23T16:50:13;23.10;99.90
52323;DHT22;38263;52.920;6.238;2022-07-23T16:52:39;23.10;99.90
52323;DHT22;38263;52.920;6.238;2022-07-23T16:55:08;22.90;99.90